sensor_id;sensor_type;location;lat;lon;timestamp;temperature;humidity
9083;DHT22;4577;48.704;9.000;2022-12-26T00:01:31;11.00;83.70
9083;DHT22;4577;48.704;9.000;2022-12-26T00:06:26;10.90;84.00
9083;DHT22;4577;48.704;9.000;2022-12-26T00:08:53;10.80;84.30
9083;DHT22;4577;48.704;9.000;2022-12-26T00:11:19;10.80;84.30
9083;DHT22;4577;48.704;9.000;2022-12-26T00:13:45;10.90;84.60
9083;DHT22;4577;48.704;9.000;2022-12-26T00:16:18;10.70;84.70
9083;DHT22;4577;48.704;9.000;2022-12-26T00:18:44;10.70;84.80
9083;DHT22;4577;48.704;9.000;2022-12-26T00:21:12;10.60;84.80
9083;DHT22;4577;48.704;9.000;2022-12-26T00:23:39;10.50;84.60
9083;DHT22;4577;48.704;9.000;2022-12-26T00:26:09;10.80;84.60
9083;DHT22;4577;48.704;9.000;2022-12-26T00:28:36;10.90;84.70
9083;DHT22;4577;48.704;9.000;2022-12-26T00:31:07;10.70;84.60
9083;DHT22;4577;48.704;9.000;2022-12-26T00:36:04;10.70;84.50
9083;DHT22;4577;48.704;9.000;2022-12-26T00:38:30;10.70;84.60
9083;DHT22;4577;48.704;9.000;2022-12-26T00:43:22;10.60;84.90
9083;DHT22;4577;48.704;9.000;2022-12-26T00:45:48;10.60;85.20
9083;DHT22;4577;48.704;9.000;2022-12-26T00:48:14;10.50;85.50
9083;DHT22;4577;48.704;9.000;2022-12-26T00:53:05;10.60;85.60
9083;DHT22;4577;48.704;9.000;2022-12-26T00:55:31;10.60;85.40
9083;DHT22;4577;48.704;9.000;2022-12-26T00:57:56;10.30;84.90
9083;DHT22;4577;48.704;9.000;2022-12-26T01:00:22;10.60;85.30
9083;DHT22;4577;48.704;9.000;2022-12-26T01:02:48;10.60;85.50
9083;DHT22;4577;48.704;9.000;2022-12-26T01:07:40;10.60;85.30
9083;DHT22;4577;48.704;9.000;2022-12-26T01:10:08;10.60;85.20
9083;DHT22;4577;48.704;9.000;2022-12-26T01:12:35;10.70;85.20
9083;DHT22;4577;48.704;9.000;2022-12-26T01:15:01;10.70;85.20
9083;DHT22;4577;48.704;9.000;2022-12-26T01:17:27;10.90;85.40
9083;DHT22;4577;48.704;9.000;2022-12-26T01:19:54;10.70;84.90
9083;DHT22;4577;48.704;9.000;2022-12-26T01:22:20;10.50;84.90
9083;DHT22;4577;48.704;9.000;2022-12-26T01:27:12;10.60;85.00
9083;DHT22;4577;48.704;9.000;2022-12-26T01:29:39;10.70;84.80
9083;DHT22;4577;48.704;9.000;2022-12-26T01:36:57;10.80;84.80
9083;DHT22;4577;48.704;9.000;2022-12-26T01:47:20;10.70;85.00
9083;DHT22;4577;48.704;9.000;2022-12-26T01:49:49;10.70;84.90
9083;DHT22;4577;48.704;9.000;2022-12-26T01:52:29;10.70;84.80
9083;DHT22;4577;48.704;9.000;2022-12-26T01:54:57;10.50;84.70
9083;DHT22;4577;48.704;9.000;2022-12-26T01:57:31;10.80;84.90
9083;DHT22;4577;48.704;9.000;2022-12-26T02:00:01;10.80;84.90
9083;DHT22;4577;48.704;9.000;2022-12-26T02:02:28;10.80;84.70
9083;DHT22;4577;48.704;9.000;2022-12-26T02:04:55;10.80;84.70
9083;DHT22;4577;48.704;9.000;2022-12-26T02:07:43;10.80;84.70
9083;DHT22;4577;48.704;9.000;2022-12-26T02:10:18;10.80;84.70
9083;DHT22;4577;48.704;9.000;2022-12-26T02:12:47;10.60;84.60
9083;DHT22;4577;48.704;9.000;2022-12-26T02:15:16;10.70;84.60
9083;DHT22;4577;48.704;9.000;2022-12-26T02:17:43;10.70;84.90
9083;DHT22;4577;48.704;9.000;2022-12-26T02:31:12;10.70;84.90
9083;DHT22;4577;48.704;9.000;2022-12-26T02:36:21;10.70;85.20
9083;DHT22;4577;48.704;9.000;2022-12-26T02:43:59;10.80;85.20
9083;DHT22;4577;48.704;9.000;2022-12-26T02:46:55;10.80;85.30
9083;DHT22;4577;48.704;9.000;2022-12-26T02:55:28;10.60;85.70
9083;DHT22;4577;48.704;9.000;2022-12-26T02:58:21;10.60;85.70
9083;DHT22;4577;48.704;9.000;2022-12-26T03:01:17;10.90;86.20
9083;DHT22;4577;48.704;9.000;2022-12-26T03:04:05;10.60;85.80
9083;DHT22;4577;48.704;9.000;2022-12-26T03:07:17;10.50;85.90
9083;DHT22;4577;48.704;9.000;2022-12-26T03:10:05;10.50;86.10
9083;DHT22;4577;48.704;9.000;2022-12-26T03:13:21;10.30;86.30
9083;DHT22;4577;48.704;9.000;2022-12-26T03:15:55;10.30;86.60
9083;DHT22;4577;48.704;9.000;2022-12-26T03:18:44;10.30;86.70
9083;DHT22;4577;48.704;9.000;2022-12-26T03:21:11;9.90;87.60
9083;DHT22;4577;48.704;9.000;2022-12-26T03:23:40;10.30;87.40
9083;DHT22;4577;48.704;9.000;2022-12-26T03:26:27;10.30;87.00
9083;DHT22;4577;48.704;9.000;2022-12-26T03:29:13;10.20;87.00
9083;DHT22;4577;48.704;9.000;2022-12-26T03:31:59;10.20;87.20
9083;DHT22;4577;48.704;9.000;2022-12-26T03:43:05;10.20;87.30
9083;DHT22;4577;48.704;9.000;2022-12-26T03:52:09;10.20;88.00
9083;DHT22;4577;48.704;9.000;2022-12-26T03:55:12;9.70;88.90
9083;DHT22;4577;48.704;9.000;2022-12-26T04:01:00;10.10;88.90
9083;DHT22;4577;48.704;9.000;2022-12-26T04:03:47;10.10;88.80
9083;DHT22;4577;48.704;9.000;2022-12-26T04:06:55;10.20;88.50
9083;DHT22;4577;48.704;9.000;2022-12-26T04:10:07;10.20;88.20
9083;DHT22;4577;48.704;9.000;2022-12-26T04:12:53;9.80;88.70
9083;DHT22;4577;48.704;9.000;2022-12-26T04:16:42;10.00;88.70
9083;DHT22;4577;48.704;9.000;2022-12-26T04:19:35;10.10;88.70
9083;DHT22;4577;48.704;9.000;2022-12-26T04:24:56;10.20;88.70
9083;DHT22;4577;48.704;9.000;2022-12-26T04:27:41;10.00;88.60
9083;DHT22;4577;48.704;9.000;2022-12-26T04:30:26;10.00;88.80
9083;DHT22;4577;48.704;9.000;2022-12-26T04:33:18;10.10;89.10
9083;DHT22;4577;48.704;9.000;2022-12-26T04:36:14;10.20;88.60
9083;DHT22;4577;48.704;9.000;2022-12-26T04:39:02;10.30;88.20
9083;DHT22;4577;48.704;9.000;2022-12-26T04:41:48;10.20;88.10
9083;DHT22;4577;48.704;9.000;2022-12-26T04:44:34;10.30;88.40
9083;DHT22;4577;48.704;9.000;2022-12-26T04:47:00;10.30;88.20
9083;DHT22;4577;48.704;9.000;2022-12-26T04:49:26;10.60;88.40
9083;DHT22;4577;48.704;9.000;2022-12-26T04:52:12;10.20;88.10
9083;DHT22;4577;48.704;9.000;2022-12-26T04:54:39;10.10;88.00
9083;DHT22;4577;48.704;9.000;2022-12-26T04:59:32;10.70;88.90
9083;DHT22;4577;48.704;9.000;2022-12-26T05:01:58;10.30;88.90
9083;DHT22;4577;48.704;9.000;2022-12-26T05:04:42;10.20;88.70
9083;DHT22;4577;48.704;9.000;2022-12-26T05:07:30;10.30;88.70
9083;DHT22;4577;48.704;9.000;2022-12-26T05:10:24;10.60;89.00
9083;DHT22;4577;48.704;9.000;2022-12-26T05:15:16;9.90;89.30
9083;DHT22;4577;48.704;9.000;2022-12-26T05:17:42;10.40;88.70
9083;DHT22;4577;48.704;9.000;2022-12-26T05:20:26;10.10;88.30
9083;DHT22;4577;48.704;9.000;2022-12-26T05:22:55;10.10;88.40
9083;DHT22;4577;48.704;9.000;2022-12-26T05:25:42;10.20;88.50
9083;DHT22;4577;48.704;9.000;2022-12-26T05:31:10;10.30;88.20
9083;DHT22;4577;48.704;9.000;2022-12-26T05:33:36;10.30;87.80
9083;DHT22;4577;48.704;9.000;2022-12-26T05:36:22;10.40;87.60
9083;DHT22;4577;48.704;9.000;2022-12-26T05:38:49;10.50;87.40
9083;DHT22;4577;48.704;9.000;2022-12-26T05:41:15;10.60;87.30
9083;DHT22;4577;48.704;9.000;2022-12-26T05:43:40;10.60;87.30
9083;DHT22;4577;48.704;9.000;2022-12-26T05:50:59;10.50;87.40
9083;DHT22;4577;48.704;9.000;2022-12-26T06:03:10;10.60;87.10
9083;DHT22;4577;48.704;9.000;2022-12-26T06:05:35;10.60;87.30
9083;DHT22;4577;48.704;9.000;2022-12-26T06:08:01;10.20;86.80
9083;DHT22;4577;48.704;9.000;2022-12-26T06:12:54;10.60;87.20
9083;DHT22;4577;48.704;9.000;2022-12-26T06:15:21;10.60;87.40
9083;DHT22;4577;48.704;9.000;2022-12-26T06:25:05;10.50;88.30
9083;DHT22;4577;48.704;9.000;2022-12-26T06:27:31;10.50;88.60
9083;DHT22;4577;48.704;9.000;2022-12-26T06:32:22;10.20;88.50
9083;DHT22;4577;48.704;9.000;2022-12-26T06:34:48;10.40;88.90
9083;DHT22;4577;48.704;9.000;2022-12-26T06:39:39;10.40;89.50
9083;DHT22;4577;48.704;9.000;2022-12-26T06:42:05;10.40;89.60
9083;DHT22;4577;48.704;9.000;2022-12-26T06:51:51;10.50;88.90
9083;DHT22;4577;48.704;9.000;2022-12-26T06:56:42;10.50;88.20
9083;DHT22;4577;48.704;9.000;2022-12-26T06:59:10;10.60;87.90
9083;DHT22;4577;48.704;9.000;2022-12-26T07:01:36;10.50;87.70
9083;DHT22;4577;48.704;9.000;2022-12-26T07:04:02;10.60;87.70
9083;DHT22;4577;48.704;9.000;2022-12-26T07:06:36;10.70;87.90
9083;DHT22;4577;48.704;9.000;2022-12-26T07:09:08;10.70;88.10
9083;DHT22;4577;48.704;9.000;2022-12-26T07:11:37;10.60;87.80
9083;DHT22;4577;48.704;9.000;2022-12-26T07:14:03;10.70;87.80
9083;DHT22;4577;48.704;9.000;2022-12-26T07:16:29;10.80;88.60
9083;DHT22;4577;48.704;9.000;2022-12-26T07:18:56;10.80;88.80
9083;DHT22;4577;48.704;9.000;2022-12-26T07:21:23;10.80;89.10
9083;DHT22;4577;48.704;9.000;2022-12-26T07:23:49;10.80;89.30
9083;DHT22;4577;48.704;9.000;2022-12-26T07:26:15;10.80;88.60
9083;DHT22;4577;48.704;9.000;2022-12-26T07:28:41;11.40;88.70
9083;DHT22;4577;48.704;9.000;2022-12-26T07:33:33;11.10;87.70
9083;DHT22;4577;48.704;9.000;2022-12-26T07:36:00;11.10;87.00
9083;DHT22;4577;48.704;9.000;2022-12-26T07:38:26;11.00;87.00
9083;DHT22;4577;48.704;9.000;2022-12-26T07:40:55;11.00;86.70
9083;DHT22;4577;48.704;9.000;2022-12-26T07:43:21;10.90;86.60
9083;DHT22;4577;48.704;9.000;2022-12-26T07:48:14;10.60;86.70
9083;DHT22;4577;48.704;9.000;2022-12-26T07:50:39;10.80;87.00
9083;DHT22;4577;48.704;9.000;2022-12-26T07:53:05;10.80;87.20
9083;DHT22;4577;48.704;9.000;2022-12-26T08:02:50;10.80;88.40
9083;DHT22;4577;48.704;9.000;2022-12-26T08:05:16;10.80;88.80
9083;DHT22;4577;48.704;9.000;2022-12-26T08:12:35;10.60;89.20
9083;DHT22;4577;48.704;9.000;2022-12-26T08:15:01;10.70;89.30
9083;DHT22;4577;48.704;9.000;2022-12-26T08:17:26;10.80;89.50
9083;DHT22;4577;48.704;9.000;2022-12-26T08:19:55;10.50;89.50
9083;DHT22;4577;48.704;9.000;2022-12-26T08:24:47;10.60;90.00
9083;DHT22;4577;48.704;9.000;2022-12-26T08:27:13;10.70;89.80
9083;DHT22;4577;48.704;9.000;2022-12-26T08:34:33;11.00;90.00
9083;DHT22;4577;48.704;9.000;2022-12-26T08:36:59;10.90;90.10
9083;DHT22;4577;48.704;9.000;2022-12-26T08:39:25;10.50;90.00
9083;DHT22;4577;48.704;9.000;2022-12-26T08:41:51;10.70;90.50
9083;DHT22;4577;48.704;9.000;2022-12-26T08:46:44;10.70;90.70
9083;DHT22;4577;48.704;9.000;2022-12-26T08:49:11;10.60;90.90
9083;DHT22;4577;48.704;9.000;2022-12-26T08:51:36;10.70;91.00
9083;DHT22;4577;48.704;9.000;2022-12-26T08:54:03;10.60;91.00
9083;DHT22;4577;48.704;9.000;2022-12-26T08:56:28;10.50;91.30
9083;DHT22;4577;48.704;9.000;2022-12-26T08:58:54;10.40;91.60
9083;DHT22;4577;48.704;9.000;2022-12-26T09:01:22;10.50;91.90
9083;DHT22;4577;48.704;9.000;2022-12-26T09:03:51;10.50;92.00
9083;DHT22;4577;48.704;9.000;2022-12-26T09:06:18;10.50;92.50
9083;DHT22;4577;48.704;9.000;2022-12-26T09:11:15;10.40;92.80
9083;DHT22;4577;48.704;9.000;2022-12-26T09:13:42;10.40;92.80
9083;DHT22;4577;48.704;9.000;2022-12-26T09:16:14;10.40;93.10
9083;DHT22;4577;48.704;9.000;2022-12-26T09:18:42;9.30;93.00
9083;DHT22;4577;48.704;9.000;2022-12-26T09:21:09;10.30;93.40
9083;DHT22;4577;48.704;9.000;2022-12-26T09:23:36;10.30;93.90
9083;DHT22;4577;48.704;9.000;2022-12-26T09:26:07;10.40;94.10
9083;DHT22;4577;48.704;9.000;2022-12-26T09:28:33;10.50;94.00
9083;DHT22;4577;48.704;9.000;2022-12-26T09:31:05;10.40;94.00
9083;DHT22;4577;48.704;9.000;2022-12-26T09:33:32;10.50;94.10
9083;DHT22;4577;48.704;9.000;2022-12-26T09:36:04;10.40;94.40
9083;DHT22;4577;48.704;9.000;2022-12-26T09:38:30;10.30;94.70
9083;DHT22;4577;48.704;9.000;2022-12-26T09:41:12;10.40;94.90
9083;DHT22;4577;48.704;9.000;2022-12-26T09:46:30;10.40;95.10
9083;DHT22;4577;48.704;9.000;2022-12-26T09:49:02;10.40;95.10
9083;DHT22;4577;48.704;9.000;2022-12-26T09:51:30;10.40;95.30
9083;DHT22;4577;48.704;9.000;2022-12-26T09:53:58;10.50;95.50
9083;DHT22;4577;48.704;9.000;2022-12-26T09:56:25;10.40;95.90
9083;DHT22;4577;48.704;9.000;2022-12-26T09:58:59;10.30;96.10
9083;DHT22;4577;48.704;9.000;2022-12-26T10:01:28;10.20;96.80
9083;DHT22;4577;48.704;9.000;2022-12-26T10:03:56;10.20;97.50
9083;DHT22;4577;48.704;9.000;2022-12-26T10:12:00;10.10;98.60
9083;DHT22;4577;48.704;9.000;2022-12-26T10:14:54;10.10;98.80
9083;DHT22;4577;48.704;9.000;2022-12-26T10:17:33;10.10;99.30
9083;DHT22;4577;48.704;9.000;2022-12-26T10:23:14;9.90;99.90
9083;DHT22;4577;48.704;9.000;2022-12-26T10:25:46;9.90;99.90
9083;DHT22;4577;48.704;9.000;2022-12-26T10:31:38;9.90;99.90
9083;DHT22;4577;48.704;9.000;2022-12-26T10:34:35;10.20;99.90
9083;DHT22;4577;48.704;9.000;2022-12-26T10:39:47;10.20;99.90
9083;DHT22;4577;48.704;9.000;2022-12-26T10:44:51;10.40;99.90
9083;DHT22;4577;48.704;9.000;2022-12-26T10:47:26;10.50;99.90
9083;DHT22;4577;48.704;9.000;2022-12-26T10:52:29;10.60;99.90
9083;DHT22;4577;48.704;9.000;2022-12-26T10:54:57;10.50;99.90
9083;DHT22;4577;48.704;9.000;2022-12-26T10:57:26;10.50;99.90
9083;DHT22;4577;48.704;9.000;2022-12-26T10:59:53;10.60;99.90
9083;DHT22;4577;48.704;9.000;2022-12-26T11:02:31;10.50;99.90
9083;DHT22;4577;48.704;9.000;2022-12-26T11:05:09;10.50;99.50
9083;DHT22;4577;48.704;9.000;2022-12-26T11:07:38;10.70;99.90
9083;DHT22;4577;48.704;9.000;2022-12-26T11:10:13;10.70;99.50
9083;DHT22;4577;48.704;9.000;2022-12-26T11:12:49;10.60;99.10
9083;DHT22;4577;48.704;9.000;2022-12-26T11:17:49;10.80;97.70
9083;DHT22;4577;48.704;9.000;2022-12-26T11:22:42;10.70;97.20
9083;DHT22;4577;48.704;9.000;2022-12-26T11:27:40;10.80;97.30
9083;DHT22;4577;48.704;9.000;2022-12-26T11:30:19;10.90;97.70
9083;DHT22;4577;48.704;9.000;2022-12-26T11:32:50;10.90;98.00
9083;DHT22;4577;48.704;9.000;2022-12-26T11:35:26;10.70;97.90
9083;DHT22;4577;48.704;9.000;2022-12-26T11:37:59;10.80;97.90
9083;DHT22;4577;48.704;9.000;2022-12-26T11:40:46;10.70;97.30
9083;DHT22;4577;48.704;9.000;2022-12-26T11:53:21;10.70;96.00
9083;DHT22;4577;48.704;9.000;2022-12-26T11:56:01;10.70;95.90
9083;DHT22;4577;48.704;9.000;2022-12-26T11:58:28;10.70;96.00
9083;DHT22;4577;48.704;9.000;2022-12-26T12:03:45;10.90;95.90
9083;DHT22;4577;48.704;9.000;2022-12-26T12:06:47;10.90;95.50
9083;DHT22;4577;48.704;9.000;2022-12-26T12:09:31;11.00;95.50
9083;DHT22;4577;48.704;9.000;2022-12-26T12:12:17;11.00;95.60
9083;DHT22;4577;48.704;9.000;2022-12-26T12:17:31;10.80;96.50
9083;DHT22;4577;48.704;9.000;2022-12-26T12:25:47;10.50;96.00
9083;DHT22;4577;48.704;9.000;2022-12-26T12:39:24;10.80;95.40
9083;DHT22;4577;48.704;9.000;2022-12-26T13:00:19;10.90;95.30
9083;DHT22;4577;48.704;9.000;2022-12-26T13:10:45;10.90;94.80
9083;DHT22;4577;48.704;9.000;2022-12-26T13:13:34;10.70;94.60
9083;DHT22;4577;48.704;9.000;2022-12-26T13:16:17;10.70;94.70
9083;DHT22;4577;48.704;9.000;2022-12-26T13:18:56;10.70;94.80
9083;DHT22;4577;48.704;9.000;2022-12-26T13:21:24;10.70;94.80
9083;DHT22;4577;48.704;9.000;2022-12-26T13:24:04;10.80;95.10
9083;DHT22;4577;48.704;9.000;2022-12-26T13:27:14;10.80;94.90
9083;DHT22;4577;48.704;9.000;2022-12-26T13:29:42;10.70;94.90
9083;DHT22;4577;48.704;9.000;2022-12-26T13:32:25;10.90;95.30
9083;DHT22;4577;48.704;9.000;2022-12-26T13:34:53;11.00;95.00
9083;DHT22;4577;48.704;9.000;2022-12-26T13:37:52;11.50;95.20
9083;DHT22;4577;48.704;9.000;2022-12-26T13:40:22;11.00;95.10
9083;DHT22;4577;48.704;9.000;2022-12-26T13:55:51;10.70;95.80
9083;DHT22;4577;48.704;9.000;2022-12-26T14:04:52;10.70;96.10
9083;DHT22;4577;48.704;9.000;2022-12-26T14:31:19;10.60;98.10
9083;DHT22;4577;48.704;9.000;2022-12-26T14:42:30;10.70;97.20
9083;DHT22;4577;48.704;9.000;2022-12-26T14:47:53;11.00;97.60
9083;DHT22;4577;48.704;9.000;2022-12-26T14:56:02;10.90;96.30
9083;DHT22;4577;48.704;9.000;2022-12-26T14:58:48;10.80;96.70
9083;DHT22;4577;48.704;9.000;2022-12-26T15:21:29;10.50;96.80
9083;DHT22;4577;48.704;9.000;2022-12-26T15:26:52;10.40;96.80
9083;DHT22;4577;48.704;9.000;2022-12-26T15:29:33;10.40;96.80
9083;DHT22;4577;48.704;9.000;2022-12-26T15:35:32;10.40;96.50
9083;DHT22;4577;48.704;9.000;2022-12-26T15:38:33;10.40;96.70
9083;DHT22;4577;48.704;9.000;2022-12-26T15:43:56;10.50;96.50
9083;DHT22;4577;48.704;9.000;2022-12-26T15:46:31;10.40;96.50
9083;DHT22;4577;48.704;9.000;2022-12-26T16:00:04;10.40;96.70
9083;DHT22;4577;48.704;9.000;2022-12-26T16:10:46;10.30;96.70
9083;DHT22;4577;48.704;9.000;2022-12-26T16:15:51;10.40;96.50
9083;DHT22;4577;48.704;9.000;2022-12-26T16:18:25;10.30;96.50
9083;DHT22;4577;48.704;9.000;2022-12-26T16:20:52;8.40;96.10
9083;DHT22;4577;48.704;9.000;2022-12-26T16:23:40;10.30;96.60
9083;DHT22;4577;48.704;9.000;2022-12-26T16:26:13;10.50;96.60
9083;DHT22;4577;48.704;9.000;2022-12-26T16:28:41;10.20;96.60
9083;DHT22;4577;48.704;9.000;2022-12-26T16:31:08;10.20;96.50
9083;DHT22;4577;48.704;9.000;2022-12-26T16:33:39;10.30;96.50
9083;DHT22;4577;48.704;9.000;2022-12-26T16:36:10;10.30;96.30
9083;DHT22;4577;48.704;9.000;2022-12-26T16:38:38;10.30;96.30
9083;DHT22;4577;48.704;9.000;2022-12-26T16:41:22;10.30;96.40
9083;DHT22;4577;48.704;9.000;2022-12-26T16:43:49;10.30;96.50
9083;DHT22;4577;48.704;9.000;2022-12-26T16:46:16;10.20;96.50
9083;DHT22;4577;48.704;9.000;2022-12-26T16:48:56;10.20;96.70
9083;DHT22;4577;48.704;9.000;2022-12-26T16:57:09;10.30;96.30
9083;DHT22;4577;48.704;9.000;2022-12-26T16:59:48;10.30;96.20
9083;DHT22;4577;48.704;9.000;2022-12-26T17:02:28;10.20;96.20
9083;DHT22;4577;48.704;9.000;2022-12-26T17:05:02;10.20;96.30
9083;DHT22;4577;48.704;9.000;2022-12-26T17:07:29;10.20;96.30
9083;DHT22;4577;48.704;9.000;2022-12-26T17:09:58;10.20;96.20
9083;DHT22;4577;48.704;9.000;2022-12-26T17:12:31;10.20;96.20
9083;DHT22;4577;48.704;9.000;2022-12-26T17:14:59;10.20;96.20
9083;DHT22;4577;48.704;9.000;2022-12-26T17:17:35;10.20;96.20
9083;DHT22;4577;48.704;9.000;2022-12-26T17:20:37;10.20;96.10
9083;DHT22;4577;48.704;9.000;2022-12-26T17:23:29;10.10;96.20
9083;DHT22;4577;48.704;9.000;2022-12-26T17:33:46;10.20;96.50
9083;DHT22;4577;48.704;9.000;2022-12-26T17:36:14;10.00;96.40
9083;DHT22;4577;48.704;9.000;2022-12-26T17:38:42;10.20;96.40
9083;DHT22;4577;48.704;9.000;2022-12-26T17:41:13;10.10;96.70
9083;DHT22;4577;48.704;9.000;2022-12-26T17:43:40;10.10;96.80
9083;DHT22;4577;48.704;9.000;2022-12-26T17:46:08;10.10;97.10
9083;DHT22;4577;48.704;9.000;2022-12-26T17:51:05;9.90;98.40
9083;DHT22;4577;48.704;9.000;2022-12-26T17:53:40;9.70;98.70
9083;DHT22;4577;48.704;9.000;2022-12-26T17:56:11;9.70;99.70
9083;DHT22;4577;48.704;9.000;2022-12-26T17:58:38;9.60;99.90
9083;DHT22;4577;48.704;9.000;2022-12-26T18:01:04;9.40;99.90
9083;DHT22;4577;48.704;9.000;2022-12-26T18:03:30;9.50;99.90
9083;DHT22;4577;48.704;9.000;2022-12-26T18:05:56;9.50;99.90
9083;DHT22;4577;48.704;9.000;2022-12-26T18:08:34;9.00;99.90
9083;DHT22;4577;48.704;9.000;2022-12-26T18:11:02;9.40;98.90
9083;DHT22;4577;48.704;9.000;2022-12-26T18:13:28;9.30;99.00
9083;DHT22;4577;48.704;9.000;2022-12-26T18:15:55;9.20;99.70
9083;DHT22;4577;48.704;9.000;2022-12-26T18:18:36;8.90;99.90
9083;DHT22;4577;48.704;9.000;2022-12-26T18:21:05;8.80;99.90
9083;DHT22;4577;48.704;9.000;2022-12-26T18:26:04;8.80;99.90
9083;DHT22;4577;48.704;9.000;2022-12-26T18:28:31;8.60;99.90
9083;DHT22;4577;48.704;9.000;2022-12-26T18:30:57;8.50;99.90
9083;DHT22;4577;48.704;9.000;2022-12-26T18:33:23;8.50;99.90
9083;DHT22;4577;48.704;9.000;2022-12-26T18:35:50;8.40;99.90
9083;DHT22;4577;48.704;9.000;2022-12-26T18:38:19;8.20;99.90
9083;DHT22;4577;48.704;9.000;2022-12-26T18:40:48;8.30;99.90
9083;DHT22;4577;48.704;9.000;2022-12-26T18:43:14;8.30;99.90
9083;DHT22;4577;48.704;9.000;2022-12-26T18:48:09;8.30;99.90
9083;DHT22;4577;48.704;9.000;2022-12-26T18:50:36;8.30;99.90
9083;DHT22;4577;48.704;9.000;2022-12-26T18:55:28;8.30;99.90
9083;DHT22;4577;48.704;9.000;2022-12-26T18:57:54;8.30;98.80
9083;DHT22;4577;48.704;9.000;2022-12-26T19:00:21;8.30;97.70
9083;DHT22;4577;48.704;9.000;2022-12-26T19:02:47;8.30;97.40
9083;DHT22;4577;48.704;9.000;2022-12-26T19:05:20;8.30;97.00
9083;DHT22;4577;48.704;9.000;2022-12-26T19:07:47;8.30;97.40
9083;DHT22;4577;48.704;9.000;2022-12-26T19:10:20;8.10;97.90
9083;DHT22;4577;48.704;9.000;2022-12-26T19:12:46;8.30;97.20
9083;DHT22;4577;48.704;9.000;2022-12-26T19:15:13;8.40;97.30
9083;DHT22;4577;48.704;9.000;2022-12-26T19:17:40;8.40;96.70
9083;DHT22;4577;48.704;9.000;2022-12-26T19:20:21;8.40;97.20
9083;DHT22;4577;48.704;9.000;2022-12-26T19:22:49;8.50;96.60
9083;DHT22;4577;48.704;9.000;2022-12-26T19:25:17;8.40;96.70
9083;DHT22;4577;48.704;9.000;2022-12-26T19:32:35;8.50;97.40
9083;DHT22;4577;48.704;9.000;2022-12-26T19:39:54;8.60;96.70
9083;DHT22;4577;48.704;9.000;2022-12-26T19:49:40;8.40;98.20
9083;DHT22;4577;48.704;9.000;2022-12-26T19:52:06;8.30;99.40
9083;DHT22;4577;48.704;9.000;2022-12-26T19:54:32;8.20;99.50
9083;DHT22;4577;48.704;9.000;2022-12-26T19:59:24;8.20;99.90
9083;DHT22;4577;48.704;9.000;2022-12-26T20:09:12;8.10;98.70
9083;DHT22;4577;48.704;9.000;2022-12-26T20:11:47;8.20;98.60
9083;DHT22;4577;48.704;9.000;2022-12-26T20:14:16;7.90;98.40
9083;DHT22;4577;48.704;9.000;2022-12-26T20:16:42;7.90;98.70
9083;DHT22;4577;48.704;9.000;2022-12-26T20:19:08;8.00;98.00
9083;DHT22;4577;48.704;9.000;2022-12-26T20:21:33;8.00;97.90
9083;DHT22;4577;48.704;9.000;2022-12-26T20:24:00;8.00;97.60
9083;DHT22;4577;48.704;9.000;2022-12-26T20:26:27;8.10;97.50
9083;DHT22;4577;48.704;9.000;2022-12-26T20:28:58;8.10;97.20
9083;DHT22;4577;48.704;9.000;2022-12-26T20:31:25;8.10;97.30
9083;DHT22;4577;48.704;9.000;2022-12-26T20:38:44;7.60;97.30
9083;DHT22;4577;48.704;9.000;2022-12-26T20:41:11;8.10;97.50
9083;DHT22;4577;48.704;9.000;2022-12-26T20:43:37;8.20;97.90
9083;DHT22;4577;48.704;9.000;2022-12-26T20:46:14;7.90;97.80
9083;DHT22;4577;48.704;9.000;2022-12-26T20:48:40;8.10;97.70
9083;DHT22;4577;48.704;9.000;2022-12-26T20:51:09;8.00;97.60
9083;DHT22;4577;48.704;9.000;2022-12-26T20:53:35;8.20;97.80
9083;DHT22;4577;48.704;9.000;2022-12-26T20:56:01;8.20;98.10
9083;DHT22;4577;48.704;9.000;2022-12-26T20:58:29;8.20;98.50
9083;DHT22;4577;48.704;9.000;2022-12-26T21:00:57;8.10;98.30
9083;DHT22;4577;48.704;9.000;2022-12-26T21:03:23;8.20;98.90
9083;DHT22;4577;48.704;9.000;2022-12-26T21:08:15;8.10;98.80
9083;DHT22;4577;48.704;9.000;2022-12-26T21:15:34;8.10;98.60
9083;DHT22;4577;48.704;9.000;2022-12-26T21:30:12;7.90;96.40
9083;DHT22;4577;48.704;9.000;2022-12-26T21:35:04;7.70;95.20
9083;DHT22;4577;48.704;9.000;2022-12-26T21:40:17;7.60;95.60
9083;DHT22;4577;48.704;9.000;2022-12-26T21:42:43;7.60;95.70
9083;DHT22;4577;48.704;9.000;2022-12-26T21:45:09;7.70;95.10
9083;DHT22;4577;48.704;9.000;2022-12-26T21:47:35;8.10;94.10
9083;DHT22;4577;48.704;9.000;2022-12-26T21:50:00;7.60;94.00
9083;DHT22;4577;48.704;9.000;2022-12-26T21:52:26;7.40;93.50
9083;DHT22;4577;48.704;9.000;2022-12-26T21:54:52;7.40;93.40
9083;DHT22;4577;48.704;9.000;2022-12-26T21:57:36;7.50;93.70
9083;DHT22;4577;48.704;9.000;2022-12-26T22:02:36;7.40;93.20
9083;DHT22;4577;48.704;9.000;2022-12-26T22:05:22;7.30;93.30
9083;DHT22;4577;48.704;9.000;2022-12-26T22:07:53;7.40;93.10
9083;DHT22;4577;48.704;9.000;2022-12-26T22:13:05;7.60;92.90
9083;DHT22;4577;48.704;9.000;2022-12-26T22:15:31;7.20;92.70
9083;DHT22;4577;48.704;9.000;2022-12-26T22:18:15;7.20;92.50
9083;DHT22;4577;48.704;9.000;2022-12-26T22:25:34;7.30;92.00
9083;DHT22;4577;48.704;9.000;2022-12-26T22:28:01;7.20;91.60
9083;DHT22;4577;48.704;9.000;2022-12-26T22:30:27;7.20;92.00
9083;DHT22;4577;48.704;9.000;2022-12-26T22:35:18;7.20;91.80
9083;DHT22;4577;48.704;9.000;2022-12-26T22:40:11;7.20;91.60
9083;DHT22;4577;48.704;9.000;2022-12-26T22:47:28;7.50;91.80
9083;DHT22;4577;48.704;9.000;2022-12-26T22:49:54;7.20;91.40
9083;DHT22;4577;48.704;9.000;2022-12-26T22:52:20;7.10;91.40
9083;DHT22;4577;48.704;9.000;2022-12-26T22:57:12;7.10;91.40
9083;DHT22;4577;48.704;9.000;2022-12-26T22:59:38;6.80;91.10
9083;DHT22;4577;48.704;9.000;2022-12-26T23:02:04;7.30;91.40
9083;DHT22;4577;48.704;9.000;2022-12-26T23:04:30;7.20;91.40
9083;DHT22;4577;48.704;9.000;2022-12-26T23:06:57;7.20;91.60
9083;DHT22;4577;48.704;9.000;2022-12-26T23:09:23;7.10;91.90
9083;DHT22;4577;48.704;9.000;2022-12-26T23:11:49;7.10;92.10
9083;DHT22;4577;48.704;9.000;2022-12-26T23:17:05;6.90;92.80
9083;DHT22;4577;48.704;9.000;2022-12-26T23:19:36;7.00;93.50
9083;DHT22;4577;48.704;9.000;2022-12-26T23:27:13;6.50;96.00
9083;DHT22;4577;48.704;9.000;2022-12-26T23:29:57;6.50;97.20
9083;DHT22;4577;48.704;9.000;2022-12-26T23:32:42;6.50;98.00
9083;DHT22;4577;48.704;9.000;2022-12-26T23:35:09;6.40;98.10
9083;DHT22;4577;48.704;9.000;2022-12-26T23:37:36;6.30;97.40
9083;DHT22;4577;48.704;9.000;2022-12-26T23:40:02;6.30;98.10
9083;DHT22;4577;48.704;9.000;2022-12-26T23:42:28;6.30;98.00
9083;DHT22;4577;48.704;9.000;2022-12-26T23:44:53;6.40;98.80
9083;DHT22;4577;48.704;9.000;2022-12-26T23:49:45;6.30;97.50
9083;DHT22;4577;48.704;9.000;2022-12-26T23:54:37;6.30;96.40
9083;DHT22;4577;48.704;9.000;2022-12-26T23:59:28;6.30;95.20
